createdAt,value
2022-08-14T00:02:06.039Z,21.36
2022-08-14T00:04:48.312Z,21.31
2022-08-14T00:07:30.310Z,21.27
2022-08-14T00:10:53.031Z,21.24
2022-08-14T00:13:21.685Z,21.21
2022-08-14T00:16:04.158Z,21.16
2022-08-14T00:18:49.739Z,21.12
2022-08-14T00:21:51.001Z,21.08
2022-08-14T00:24:32.987Z,21.05
2022-08-14T00:27:17.135Z,21.02
2022-08-14T00:30:00.277Z,21.00
2022-08-14T00:32:51.947Z,20.97
2022-08-14T00:36:36.496Z,20.93
2022-08-14T00:38:37.590Z,20.89
2022-08-14T00:41:19.588Z,20.85
2022-08-14T00:44:02.507Z,20.82
2022-08-14T00:46:49.626Z,20.79
2022-08-14T00:49:38.185Z,20.75
2022-08-14T00:52:26.115Z,20.69
2022-08-14T00:55:10.092Z,20.65
2022-08-14T00:58:14.277Z,20.61
2022-08-14T01:00:57.737Z,20.58
2022-08-14T01:03:42.421Z,20.56
2022-08-14T01:06:30.369Z,20.52
2022-08-14T01:09:16.708Z,20.48
2022-08-14T01:12:02.658Z,20.42
2022-08-14T01:14:45.769Z,20.39
2022-08-14T01:17:50.628Z,20.38
2022-08-14T01:20:53.034Z,20.36
2022-08-14T01:23:46.826Z,20.34
2022-08-14T01:26:35.200Z,20.30
2022-08-14T01:29:43.167Z,20.28
2022-08-14T01:32:24.343Z,20.25
2022-08-14T01:35:20.849Z,20.21
2022-08-14T01:38:15.374Z,20.18
2022-08-14T01:40:58.906Z,20.14
2022-08-14T01:43:56.677Z,20.10
2022-08-14T01:46:47.376Z,20.06
2022-08-14T01:49:46.271Z,20.01
2022-08-14T01:52:59.977Z,19.96
2022-08-14T01:55:44.625Z,19.89
2022-08-14T01:58:29.861Z,19.84
2022-08-14T02:01:16.102Z,19.79
2022-08-14T02:03:59.495Z,19.76
2022-08-14T02:06:42.291Z,19.73
2022-08-14T02:09:24.904Z,19.72
2022-08-14T02:12:09.141Z,19.68
2022-08-14T02:15:01.429Z,19.65
2022-08-14T02:17:43.903Z,19.62
2022-08-14T02:20:26.121Z,19.60
2022-08-14T02:23:09.048Z,19.58
2022-08-14T02:25:54.551Z,19.57
2022-08-14T02:28:58.381Z,19.56
2022-08-14T02:31:44.062Z,19.53
2022-08-14T02:34:29.489Z,19.51
2022-08-14T02:37:12.917Z,19.49
2022-08-14T02:39:57.766Z,19.46
2022-08-14T02:42:40.491Z,19.44
2022-08-14T02:45:38.361Z,19.41
2022-08-14T02:49:00.958Z,19.38
2022-08-14T02:51:36.386Z,19.35
2022-08-14T02:54:20.101Z,19.32
2022-08-14T02:57:14.049Z,19.29
2022-08-14T02:59:59.553Z,19.26
2022-08-14T03:02:56.342Z,19.22
2022-08-14T03:05:41.810Z,19.18
2022-08-14T03:08:32.020Z,19.13
2022-08-14T03:11:14.477Z,19.08
2022-08-14T03:13:59.561Z,19.06
2022-08-14T03:16:41.954Z,19.04
2022-08-14T03:19:23.849Z,19.02
2022-08-14T03:22:09.207Z,19.00
2022-08-14T03:24:51.837Z,18.99
2022-08-14T03:27:35.524Z,18.97
2022-08-14T03:30:37.084Z,18.95
2022-08-14T03:33:22.103Z,18.93
2022-08-14T03:37:51.592Z,18.89
2022-08-14T03:39:22.017Z,18.86
2022-08-14T03:42:05.168Z,18.83
2022-08-14T03:45:19.412Z,18.79
2022-08-14T03:48:26.735Z,18.77
2022-08-14T03:51:14.298Z,18.73
2022-08-14T03:53:58.744Z,18.70
2022-08-14T03:56:44.994Z,18.67
2022-08-14T03:59:28.479Z,18.64
2022-08-14T04:02:33.408Z,18.63
2022-08-14T04:05:16.370Z,18.62
2022-08-14T04:08:08.432Z,18.61
2022-08-14T04:11:07.845Z,18.60
2022-08-14T04:13:52.282Z,18.58
2022-08-14T04:16:34.586Z,18.57
2022-08-14T04:19:20.653Z,18.57
2022-08-14T04:22:04.376Z,18.58
2022-08-14T04:24:46.518Z,18.59
2022-08-14T04:27:31.589Z,18.60
2022-08-14T04:30:39.494Z,18.62
2022-08-14T04:33:25.272Z,18.61
2022-08-14T04:36:09.289Z,18.62
2022-08-14T04:39:17.160Z,18.64
2022-08-14T04:42:18.007Z,18.68
2022-08-14T04:45:01.287Z,18.71
2022-08-14T04:48:03.380Z,18.72
2022-08-14T04:50:54.007Z,18.71
2022-08-14T04:53:42.872Z,18.72
2022-08-14T04:56:31.507Z,18.74
2022-08-14T04:59:16.043Z,18.75
2022-08-14T05:01:58.597Z,18.77
2022-08-14T05:04:45.464Z,18.80
2022-08-14T05:07:54.180Z,18.80
2022-08-14T05:10:46.250Z,18.81
2022-08-14T05:13:53.217Z,18.83
2022-08-14T05:16:36.740Z,18.84
2022-08-14T05:19:27.167Z,18.87
2022-08-14T05:22:15.702Z,18.86
2022-08-14T05:25:00.142Z,18.85
2022-08-14T05:27:42.755Z,18.88
2022-08-14T05:30:24.691Z,18.91
2022-08-14T05:33:07.777Z,18.96
2022-08-14T05:35:49.671Z,19.00
2022-08-14T05:38:42.162Z,19.04
2022-08-14T05:41:27.729Z,19.08
2022-08-14T05:44:30.681Z,19.12
2022-08-14T05:47:15.353Z,19.17
2022-08-14T05:49:58.779Z,19.20
2022-08-14T05:52:40.841Z,19.22
2022-08-14T05:55:23.365Z,19.26
2022-08-14T05:58:08.726Z,19.30
2022-08-14T06:00:52.403Z,19.33
2022-08-14T06:03:35.735Z,19.38
2022-08-14T06:06:18.857Z,19.42
2022-08-14T06:09:00.752Z,19.48
2022-08-14T06:11:43.198Z,19.53
2022-08-14T06:14:25.103Z,19.57
2022-08-14T06:17:08.591Z,19.61
2022-08-14T06:19:50.588Z,19.66
2022-08-14T06:22:32.383Z,19.71
2022-08-14T06:25:19.551Z,19.77
2022-08-14T06:28:02.087Z,19.83
2022-08-14T06:30:47.434Z,19.89
2022-08-14T06:35:01.437Z,19.97
2022-08-14T06:36:31.764Z,20.04
2022-08-14T06:39:13.658Z,20.08
2022-08-14T06:41:59.992Z,20.15
2022-08-14T06:44:42.568Z,20.20
2022-08-14T06:47:24.669Z,20.25
2022-08-14T06:50:12.507Z,20.30
2022-08-14T06:52:55.526Z,20.36
2022-08-14T06:55:40.787Z,20.46
2022-08-14T06:58:40.105Z,20.57
2022-08-14T07:01:40.839Z,20.63
2022-08-14T07:04:41.887Z,20.70
2022-08-14T07:07:24.499Z,20.78
2022-08-14T07:10:16.849Z,20.84
2022-08-14T07:13:03.606Z,20.90
2022-08-14T07:15:50.917Z,20.95
2022-08-14T07:18:37.494Z,21.00
2022-08-14T07:21:22.854Z,21.04
2022-08-14T07:24:04.960Z,21.10
2022-08-14T07:26:51.562Z,21.17
2022-08-14T07:29:33.560Z,21.23
2022-08-14T07:32:20.069Z,21.31
2022-08-14T07:35:04.570Z,21.42
2022-08-14T07:37:49.127Z,21.57
2022-08-14T07:40:35.367Z,21.76
2022-08-14T07:43:18.092Z,21.99
2022-08-14T07:46:04.748Z,22.25
2022-08-14T07:48:48.847Z,22.48
2022-08-14T07:51:37.129Z,22.72
2022-08-14T07:54:22.927Z,22.95
2022-08-14T07:57:24.804Z,23.23
2022-08-14T08:00:29.936Z,23.49
2022-08-14T08:03:15.130Z,23.80
2022-08-14T08:05:57.977Z,24.25
2022-08-14T08:08:40.589Z,24.48
2022-08-14T08:11:22.996Z,24.47
2022-08-14T08:14:16.329Z,24.38
2022-08-14T08:17:00.304Z,24.35
2022-08-14T08:19:42.098Z,24.37
2022-08-14T08:22:32.547Z,24.45
2022-08-14T08:25:18.163Z,24.69
2022-08-14T08:28:09.049Z,25.00
2022-08-14T08:31:08.269Z,25.34
2022-08-14T08:33:54.587Z,25.60
2022-08-14T08:36:46.783Z,25.67
2022-08-14T08:39:30.846Z,25.57
2022-08-14T08:42:41.233Z,25.59
2022-08-14T08:45:27.957Z,26.03
2022-08-14T08:48:20.692Z,26.48
2022-08-14T08:51:34.495Z,26.89
2022-08-14T08:54:19.899Z,27.19
2022-08-14T08:57:04.812Z,27.39
2022-08-14T08:59:54.951Z,27.53
2022-08-14T09:02:38.921Z,27.42
2022-08-14T09:05:25.449Z,27.48
2022-08-14T09:08:26.654Z,27.55
2022-08-14T09:11:19.909Z,27.74
2022-08-14T09:14:05.539Z,28.03
2022-08-14T09:16:51.702Z,28.24
2022-08-14T09:19:37.283Z,28.26
2022-08-14T09:22:47.653Z,28.25
2022-08-14T09:25:29.793Z,28.29
2022-08-14T09:28:27.146Z,28.29
2022-08-14T09:31:17.370Z,28.07
2022-08-14T09:34:26.910Z,27.85
2022-08-14T09:37:29.471Z,27.70
2022-08-14T09:40:40.445Z,27.57
2022-08-14T09:43:25.101Z,27.40
2022-08-14T09:46:25.738Z,27.25
2022-08-14T09:49:39.959Z,27.14
2022-08-14T09:52:34.236Z,27.10
2022-08-14T09:55:24.489Z,27.12
2022-08-14T09:58:19.476Z,27.04
2022-08-14T10:01:15.143Z,27.04
2022-08-14T10:03:59.745Z,27.09
2022-08-14T10:06:46.179Z,27.19
2022-08-14T10:09:33.462Z,27.28
2022-08-14T10:12:28.584Z,27.41
2022-08-14T10:15:27.831Z,27.47
2022-08-14T10:18:18.225Z,27.62
2022-08-14T10:21:09.571Z,27.79
2022-08-14T10:23:52.788Z,27.94
2022-08-14T10:26:36.791Z,27.96
2022-08-14T10:29:23.460Z,28.00
2022-08-14T10:32:17.897Z,28.09
2022-08-14T10:35:14.432Z,28.35
2022-08-14T10:38:00.874Z,28.50
2022-08-14T10:40:52.073Z,28.49
2022-08-14T10:44:05.282Z,28.42
2022-08-14T10:47:40.162Z,28.32
2022-08-14T10:50:14.966Z,28.21
2022-08-14T10:52:59.966Z,28.12
2022-08-14T10:55:45.688Z,28.01
2022-08-14T10:58:32.990Z,27.91
2022-08-14T11:01:16.944Z,27.82
2022-08-14T11:03:59.284Z,27.79
2022-08-14T11:06:52.670Z,27.78
2022-08-14T11:09:34.774Z,27.71
2022-08-14T11:12:33.705Z,27.61
2022-08-14T11:15:27.779Z,27.59
2022-08-14T11:18:20.428Z,27.62
2022-08-14T11:21:21.468Z,27.63
2022-08-14T11:24:54.270Z,27.62
2022-08-14T11:27:16.616Z,27.58
2022-08-14T11:30:49.803Z,27.56
2022-08-14T11:33:13.454Z,27.50
2022-08-14T11:36:02.062Z,27.56
2022-08-14T11:38:46.510Z,27.81
2022-08-14T11:41:29.286Z,28.10
2022-08-14T11:44:45.066Z,28.32
2022-08-14T11:47:21.443Z,28.35
2022-08-14T11:50:33.976Z,28.35
2022-08-14T11:53:32.304Z,28.34
2022-08-14T11:56:14.312Z,28.39
2022-08-14T11:59:00.326Z,28.32
2022-08-14T12:01:42.911Z,28.25
2022-08-14T12:04:32.151Z,28.19
2022-08-14T12:07:15.516Z,28.19
2022-08-14T12:09:59.480Z,28.23
2022-08-14T12:12:42.328Z,28.19
2022-08-14T12:15:44.854Z,28.05
2022-08-14T12:18:39.496Z,27.87
2022-08-14T12:21:25.533Z,27.62
2022-08-14T12:24:10.115Z,27.37
2022-08-14T12:27:13.430Z,27.17
2022-08-14T12:30:00.221Z,27.01
2022-08-14T12:32:48.648Z,26.71
2022-08-14T12:35:40.177Z,26.39
2022-08-14T12:38:43.660Z,26.14
2022-08-14T12:41:37.032Z,25.95
2022-08-14T12:44:30.509Z,25.86
2022-08-14T12:47:17.250Z,25.87
2022-08-14T12:50:00.147Z,25.99
2022-08-14T12:53:01.901Z,26.23
2022-08-14T12:56:18.304Z,26.55
2022-08-14T12:59:02.294Z,26.89
2022-08-14T13:02:01.783Z,27.15
2022-08-14T13:04:49.389Z,27.40
2022-08-14T13:07:33.248Z,27.58
2022-08-14T13:10:47.757Z,27.73
2022-08-14T13:13:19.438Z,27.79
2022-08-14T13:16:02.986Z,27.82
2022-08-14T13:19:03.616Z,27.89
2022-08-14T13:22:05.889Z,27.97
2022-08-14T13:24:50.652Z,28.06
2022-08-14T13:27:39.200Z,28.00
2022-08-14T13:30:25.022Z,28.02
2022-08-14T13:33:07.604Z,28.10
2022-08-14T13:35:57.231Z,28.18
2022-08-14T13:38:43.702Z,28.30
2022-08-14T13:41:34.700Z,28.28
2022-08-14T13:44:24.090Z,28.13
2022-08-14T13:47:08.905Z,28.05
2022-08-14T13:49:57.793Z,27.96
2022-08-14T13:52:54.767Z,27.84
2022-08-14T13:55:37.963Z,27.74
2022-08-14T13:58:34.101Z,27.68
2022-08-14T14:01:18.888Z,27.67
2022-08-14T14:04:04.669Z,27.68
2022-08-14T14:06:52.829Z,27.73
2022-08-14T14:09:52.686Z,27.85
2022-08-14T14:12:41.530Z,27.99
2022-08-14T14:15:33.898Z,28.10
2022-08-14T14:18:34.028Z,28.22
2022-08-14T14:21:18.793Z,28.34
2022-08-14T14:24:06.329Z,28.38
2022-08-14T14:26:50.519Z,28.36
2022-08-14T14:29:33.795Z,28.29
2022-08-14T14:32:32.058Z,28.15
2022-08-14T14:35:18.069Z,27.96
2022-08-14T14:38:00.519Z,27.79
2022-08-14T14:40:53.669Z,27.67
2022-08-14T14:43:47.207Z,27.54
2022-08-14T14:46:37.165Z,27.46
2022-08-14T14:49:21.848Z,27.42
2022-08-14T14:52:05.612Z,27.40
2022-08-14T14:54:48.814Z,27.40
2022-08-14T14:57:35.033Z,27.40
2022-08-14T15:00:20.334Z,27.42
2022-08-14T15:03:03.335Z,27.43
2022-08-14T15:05:46.128Z,27.45
2022-08-14T15:08:55.812Z,27.43
2022-08-14T15:11:32.960Z,27.40
2022-08-14T15:14:54.665Z,27.38
2022-08-14T15:17:17.434Z,27.30
2022-08-14T15:19:59.637Z,27.22
2022-08-14T15:22:43.595Z,27.21
2022-08-14T15:25:33.566Z,27.22
2022-08-14T15:28:21.176Z,27.24
2022-08-14T15:31:05.989Z,27.23
2022-08-14T15:34:43.850Z,27.24
2022-08-14T15:37:22.896Z,27.23
2022-08-14T15:40:10.131Z,27.21
2022-08-14T15:43:09.036Z,27.21
2022-08-14T15:45:51.727Z,27.21
2022-08-14T15:48:35.987Z,27.20
2022-08-14T15:51:28.245Z,27.18
2022-08-14T15:54:13.267Z,27.19
2022-08-14T15:57:04.678Z,27.16
2022-08-14T16:00:04.736Z,27.14
2022-08-14T16:02:54.953Z,27.12
2022-08-14T16:05:38.483Z,27.10
2022-08-14T16:08:26.619Z,27.09
2022-08-14T16:11:12.891Z,27.05
2022-08-14T16:13:57.474Z,27.02
2022-08-14T16:16:51.025Z,27.01
2022-08-14T16:22:58.694Z,26.94
2022-08-14T16:25:47.444Z,26.88
2022-08-14T16:28:37.255Z,26.83
2022-08-14T16:31:26.513Z,26.76
2022-08-14T16:34:46.139Z,26.70
2022-08-14T16:37:21.600Z,26.67
2022-08-14T16:40:07.514Z,26.64
2022-08-14T16:40:23.909Z,26.99
2022-08-14T16:43:03.909Z,26.60
2022-08-14T16:45:57.063Z,26.57
2022-08-14T16:48:55.105Z,26.51
2022-08-14T16:51:41.720Z,26.36
2022-08-14T16:54:35.387Z,26.18
2022-08-14T16:57:35.261Z,25.97
2022-08-14T17:00:28.810Z,25.80
2022-08-14T17:03:13.095Z,25.65
2022-08-14T17:05:55.973Z,25.55
2022-08-14T17:08:46.234Z,25.47
2022-08-14T17:11:31.634Z,25.40
2022-08-14T17:14:14.761Z,25.36
2022-08-14T17:16:59.433Z,25.35
2022-08-14T17:19:42.038Z,25.34
2022-08-14T17:22:47.992Z,25.33
2022-08-14T17:25:37.287Z,25.33
2022-08-14T17:28:51.504Z,25.33
2022-08-14T17:31:58.718Z,25.33
2022-08-14T17:34:53.122Z,25.33
2022-08-14T17:37:38.138Z,25.34
2022-08-14T17:40:26.150Z,25.34
2022-08-14T17:43:09.360Z,25.34
2022-08-14T17:45:51.866Z,25.35
2022-08-14T17:49:10.546Z,25.35
2022-08-14T17:51:58.946Z,25.32
2022-08-14T17:54:44.611Z,25.31
2022-08-14T17:57:28.366Z,25.27
2022-08-14T18:00:14.774Z,25.22
2022-08-14T18:02:58.099Z,25.17
2022-08-14T18:06:07.620Z,25.12
2022-08-14T18:08:47.803Z,25.04
2022-08-14T18:11:46.242Z,24.98
2022-08-14T18:14:33.088Z,24.93
2022-08-14T18:17:31.066Z,24.89
2022-08-14T18:21:23.031Z,24.81
2022-08-14T18:23:18.924Z,24.73
2022-08-14T18:26:05.329Z,24.66
2022-08-14T18:28:51.414Z,24.61
2022-08-14T18:31:42.157Z,24.57
2022-08-14T18:34:38.228Z,24.52
2022-08-14T18:37:33.971Z,24.47
2022-08-14T18:40:15.805Z,24.43
2022-08-14T18:43:03.526Z,24.41
2022-08-14T18:46:00.929Z,24.39
2022-08-14T18:48:51.093Z,24.36
2022-08-14T18:51:46.155Z,24.31
2022-08-14T18:54:34.386Z,24.24
2022-08-14T18:57:20.180Z,24.19
2022-08-14T19:00:40.272Z,24.15
2022-08-14T19:03:37.136Z,24.11
2022-08-14T19:06:19.525Z,24.02
2022-08-14T19:09:04.084Z,23.95
2022-08-14T19:11:50.481Z,23.90
2022-08-14T19:14:50.710Z,23.83
2022-08-14T19:18:14.266Z,23.78
2022-08-14T19:20:52.778Z,23.74
2022-08-14T19:23:42.157Z,23.70
2022-08-14T19:26:36.040Z,23.65
2022-08-14T19:29:38.338Z,23.61
2022-08-14T19:32:41.067Z,23.56
2022-08-14T19:35:49.048Z,23.51
2022-08-14T19:38:53.968Z,23.46
2022-08-14T19:41:38.029Z,23.38
2022-08-14T19:44:31.750Z,23.32
2022-08-14T19:47:15.200Z,23.29
2022-08-14T19:50:08.358Z,23.25
2022-08-14T19:53:16.602Z,23.18
2022-08-14T19:56:04.912Z,23.10
2022-08-14T19:58:54.942Z,23.01
2022-08-14T20:01:40.414Z,22.91
2022-08-14T20:04:45.962Z,22.81
2022-08-14T20:07:59.092Z,22.75
2022-08-14T20:11:08.194Z,22.68
2022-08-14T20:13:40.980Z,22.63
2022-08-14T20:16:31.881Z,22.62
2022-08-14T20:19:17.819Z,22.61
2022-08-14T20:22:04.849Z,22.59
2022-08-14T20:25:16.649Z,22.56
2022-08-14T20:27:59.401Z,22.53
2022-08-14T20:30:41.725Z,22.51
2022-08-14T20:33:24.664Z,22.49
2022-08-14T20:36:25.930Z,22.46
2022-08-14T20:39:15.763Z,22.43
2022-08-14T20:42:19.008Z,22.41
2022-08-14T20:45:21.362Z,22.39
2022-08-14T20:48:09.139Z,22.36
2022-08-14T20:50:52.091Z,22.33
2022-08-14T20:53:36.179Z,22.32
2022-08-14T20:56:30.333Z,22.29
2022-08-14T20:59:19.185Z,22.26
2022-08-14T21:02:29.513Z,22.22
2022-08-14T21:05:16.122Z,22.17
2022-08-14T21:08:08.502Z,22.13
2022-08-14T21:11:03.018Z,22.11
2022-08-14T21:14:20.944Z,22.08
2022-08-14T21:16:58.058Z,22.06
2022-08-14T21:19:40.720Z,22.04
2022-08-14T21:22:25.546Z,22.01
2022-08-14T21:25:10.869Z,21.98
2022-08-14T21:27:56.650Z,21.97
2022-08-14T21:30:47.087Z,21.95
2022-08-14T21:33:35.788Z,21.92
2022-08-14T21:36:21.988Z,21.89
2022-08-14T21:39:04.404Z,21.85
2022-08-14T21:41:50.246Z,21.83
2022-08-14T21:44:43.463Z,21.79
2022-08-14T21:47:26.270Z,21.76
2022-08-14T21:50:56.504Z,21.75
2022-08-14T21:53:14.560Z,21.71
2022-08-14T21:55:57.457Z,21.70
2022-08-14T21:58:52.785Z,21.68
2022-08-14T22:02:01.331Z,21.67
2022-08-14T22:04:41.348Z,21.64
2022-08-14T22:07:29.234Z,21.61
2022-08-14T22:10:14.289Z,21.60
2022-08-14T22:13:05.440Z,21.58
2022-08-14T22:15:50.132Z,21.56
2022-08-14T22:18:34.473Z,21.52
2022-08-14T22:21:19.645Z,21.50
2022-08-14T22:24:01.746Z,21.47
2022-08-14T22:26:52.656Z,21.44
2022-08-14T22:29:35.499Z,21.41
2022-08-14T22:32:18.798Z,21.39
2022-08-14T22:35:09.176Z,21.38
2022-08-14T22:38:01.485Z,21.36
2022-08-14T22:41:18.219Z,21.35
2022-08-14T22:44:01.040Z,21.35
2022-08-14T22:46:45.311Z,21.35
2022-08-14T22:50:31.938Z,21.36
2022-08-14T22:52:33.242Z,21.36
2022-08-14T22:55:16.140Z,21.36
2022-08-14T22:57:59.416Z,21.35
2022-08-14T23:00:42.032Z,21.35
2022-08-14T23:03:25.261Z,21.36
2022-08-14T23:07:02.123Z,21.36
2022-08-14T23:09:36.137Z,21.35
2022-08-14T23:12:28.273Z,21.34
2022-08-14T23:15:13.457Z,21.33
2022-08-14T23:17:55.769Z,21.32
2022-08-14T23:20:39.736Z,21.30
2022-08-14T23:23:23.027Z,21.29
2022-08-14T23:26:47.992Z,21.28
2022-08-14T23:29:11.565Z,21.26
2022-08-14T23:31:57.015Z,21.25
2022-08-14T23:34:47.821Z,21.23
2022-08-14T23:37:33.586Z,21.22
2022-08-14T23:40:26.359Z,21.18
2022-08-14T23:43:14.798Z,21.15
2022-08-14T23:45:57.878Z,21.13
2022-08-14T23:48:40.826Z,21.12
2022-08-14T23:51:28.661Z,21.10
2022-08-14T23:54:48.944Z,21.08
2022-08-14T23:57:20.511Z,21.07
